Mopti, Mali
Current Conditions -  °F | °C
As of 3:00 PM on Sunday 21 Dec 2014 (Local Time) from DFOO Reporting Station
Clear Clear  
Wind Chill: 91°   Ceiling: Unl
Heat Index: 91°   Visibility: 6mi
Dew Point: 39°   Wind: 7mph
Humidity: 16%   Direction: 20°NNE
Pressure: 29.91"   Gusts: NA
Location:  14.49°N, 4.18°W
Report Text: DFOO 211500Z 02006KT CAVOK 33/04 Q1013
Loading
Personal Weather Stations






























Interactive Weather Map New forecast layout! Learn more

10-Day Weather Forecast

Advertisements
Track Severe Weather on mobile